createdAt,value
2023-03-12T00:00:12.416Z,5.85
2023-03-12T00:02:39.365Z,5.78
2023-03-12T00:05:06.750Z,4.88
2023-03-12T00:07:33.796Z,6.88
2023-03-12T00:10:00.583Z,4.82
2023-03-12T00:12:27.390Z,4.57
2023-03-12T00:14:54.214Z,5.78
2023-03-12T00:17:21.087Z,3.78
2023-03-12T00:19:51.943Z,3.70
2023-03-12T00:22:23.002Z,3.87
2023-03-12T00:24:54.278Z,5.00
2023-03-12T00:27:22.346Z,5.50
2023-03-12T00:29:50.201Z,5.35
2023-03-12T00:32:17.189Z,3.28
2023-03-12T00:34:44.020Z,4.68
2023-03-12T00:37:11.061Z,4.18
2023-03-12T00:39:37.879Z,6.75
2023-03-12T00:42:05.116Z,5.00
2023-03-12T00:44:31.885Z,4.40
2023-03-12T00:46:59.052Z,4.50
2023-03-12T00:49:25.920Z,4.05
2023-03-12T00:51:54.152Z,4.80
2023-03-12T00:54:21.923Z,5.00
2023-03-12T00:56:49.370Z,3.50
2023-03-12T00:59:16.512Z,2.40
2023-03-12T01:01:44.865Z,2.35
2023-03-12T01:04:12.436Z,2.75
2023-03-12T01:06:39.520Z,2.47
2023-03-12T01:09:07.780Z,2.20
2023-03-12T01:11:35.387Z,2.38
2023-03-12T01:14:03.169Z,4.40
2023-03-12T01:16:30.642Z,2.38
2023-03-12T01:18:58.602Z,2.30
2023-03-12T01:21:25.994Z,2.10
2023-03-12T01:23:53.639Z,3.35
2023-03-12T01:26:20.680Z,3.88
2023-03-12T01:28:48.861Z,3.47
2023-03-12T01:31:18.980Z,3.83
2023-03-12T01:33:50.449Z,6.28
2023-03-12T01:36:22.812Z,5.85
2023-03-12T01:38:54.136Z,2.38
2023-03-12T01:41:22.864Z,2.10
2023-03-12T01:43:49.778Z,8.38
2023-03-12T01:46:46.015Z,4.78
2023-03-12T01:49:28.896Z,3.22
2023-03-12T01:52:05.273Z,2.28
2023-03-12T01:55:03.501Z,2.30
2023-03-12T01:57:42.130Z,1.83
2023-03-12T02:00:13.940Z,2.60
2023-03-12T02:02:42.142Z,5.28
2023-03-12T02:05:20.223Z,2.80
2023-03-12T02:07:47.104Z,3.10
2023-03-12T02:10:14.318Z,2.80
2023-03-12T02:12:41.261Z,3.35
2023-03-12T02:15:08.748Z,2.10
2023-03-12T02:17:36.534Z,6.15
2023-03-12T02:20:18.388Z,3.05
2023-03-12T02:22:51.730Z,4.07
2023-03-12T02:25:43.861Z,4.35
2023-03-12T02:30:42.723Z,1.30
2023-03-12T02:33:10.792Z,4.70
2023-03-12T02:35:37.844Z,3.03
2023-03-12T02:38:38.402Z,2.75
2023-03-12T02:41:19.646Z,3.72
2023-03-12T02:43:58.904Z,3.45
2023-03-12T02:46:27.030Z,6.00
2023-03-12T02:48:54.096Z,3.03
2023-03-12T02:51:21.048Z,0.90
2023-03-12T02:53:50.231Z,2.88
2023-03-12T02:56:17.220Z,4.40
2023-03-12T02:58:44.746Z,3.45
2023-03-12T03:01:11.751Z,3.65
2023-03-12T03:03:39.003Z,3.92
2023-03-12T03:06:06.056Z,6.38
2023-03-12T03:08:32.921Z,2.85
2023-03-12T03:11:02.985Z,4.25
2023-03-12T03:13:30.983Z,1.40
2023-03-12T03:15:59.797Z,3.65
2023-03-12T03:18:26.788Z,4.50
2023-03-12T03:20:58.369Z,5.18
2023-03-12T03:25:52.997Z,7.50
2023-03-12T03:28:21.168Z,1.77
2023-03-12T03:30:48.245Z,2.15
2023-03-12T03:33:15.421Z,5.43
2023-03-12T03:35:42.490Z,2.80
2023-03-12T03:38:09.842Z,4.32
2023-03-12T03:40:36.978Z,1.40
2023-03-12T03:43:04.123Z,6.35
2023-03-12T03:45:31.202Z,3.10
2023-03-12T03:47:58.413Z,3.20
2023-03-12T03:50:25.437Z,3.00
2023-03-12T03:52:52.561Z,2.25
2023-03-12T03:55:19.578Z,1.45
2023-03-12T03:57:46.647Z,3.20
2023-03-12T04:00:16.256Z,3.92
2023-03-12T04:02:45.144Z,1.58
2023-03-12T04:05:16.064Z,2.53
2023-03-12T04:07:43.535Z,4.60
2023-03-12T04:10:11.713Z,4.15
2023-03-12T04:12:38.857Z,2.15
2023-03-12T04:15:06.524Z,2.33
2023-03-12T04:17:33.664Z,6.55
2023-03-12T04:20:01.815Z,3.60
2023-03-12T04:22:29.336Z,4.47
2023-03-12T04:24:56.220Z,4.00
2023-03-12T04:27:24.799Z,1.73
2023-03-12T04:29:52.051Z,1.00
2023-03-12T04:32:19.489Z,2.78
2023-03-12T04:34:47.217Z,5.53
2023-03-12T04:37:16.470Z,3.47
2023-03-12T04:39:44.682Z,3.45
2023-03-12T04:42:12.398Z,2.38
2023-03-12T04:44:41.727Z,3.42
2023-03-12T04:47:08.939Z,5.32
2023-03-12T04:49:38.655Z,2.45
2023-03-12T04:52:06.528Z,1.15
2023-03-12T04:54:33.628Z,2.78
2023-03-12T04:57:00.986Z,1.55
2023-03-12T04:59:28.087Z,4.65
2023-03-12T05:01:55.190Z,1.42
2023-03-12T05:04:26.585Z,4.13
2023-03-12T05:06:54.709Z,6.88
2023-03-12T05:09:21.758Z,3.38
2023-03-12T05:11:48.629Z,4.68
2023-03-12T05:14:18.705Z,2.97
2023-03-12T05:16:47.439Z,5.47
2023-03-12T05:19:14.365Z,5.00
2023-03-12T05:21:43.122Z,7.72
2023-03-12T05:24:11.386Z,5.25
2023-03-12T05:26:38.509Z,3.97
2023-03-12T05:29:10.718Z,3.85
2023-03-12T05:31:38.065Z,3.42
2023-03-12T05:34:06.687Z,2.83
2023-03-12T05:36:37.990Z,3.22
2023-03-12T05:39:05.348Z,1.08
2023-03-12T05:41:33.715Z,1.05
2023-03-12T05:44:06.540Z,2.17
2023-03-12T05:46:33.473Z,3.88
2023-03-12T05:49:00.670Z,2.55
2023-03-12T05:51:27.804Z,3.03
2023-03-12T05:53:54.838Z,2.35
2023-03-12T05:56:21.673Z,4.78
2023-03-12T05:58:50.065Z,3.70
2023-03-12T06:01:21.550Z,4.07
2023-03-12T06:03:48.647Z,2.65
2023-03-12T06:06:15.583Z,3.13
2023-03-12T06:08:45.191Z,3.42
2023-03-12T06:11:12.743Z,5.22
2023-03-12T06:13:39.800Z,2.20
2023-03-12T06:16:16.370Z,2.70
2023-03-12T06:18:43.814Z,4.35
2023-03-12T06:21:16.862Z,8.63
2023-03-12T06:23:45.377Z,3.13
2023-03-12T06:26:16.956Z,2.38
2023-03-12T06:28:45.994Z,4.05
2023-03-12T06:31:13.263Z,6.80
2023-03-12T06:33:40.443Z,5.40
2023-03-12T06:36:08.963Z,2.67
2023-03-12T06:38:36.302Z,4.50
2023-03-12T06:41:09.361Z,4.70
2023-03-12T06:43:37.338Z,6.68
2023-03-12T06:46:05.527Z,4.07
2023-03-12T06:48:36.548Z,7.47
2023-03-12T06:51:04.768Z,2.58
2023-03-12T06:53:32.552Z,3.55
2023-03-12T06:55:59.371Z,3.03
2023-03-12T06:58:26.408Z,8.18
2023-03-12T07:00:53.670Z,6.20
2023-03-12T07:03:20.698Z,1.65
2023-03-12T07:05:49.106Z,7.10
2023-03-12T07:08:16.765Z,5.72
2023-03-12T07:10:43.540Z,3.85
2023-03-12T07:13:10.429Z,2.50
2023-03-12T07:15:37.580Z,4.63
2023-03-12T07:21:10.533Z,16.23
2023-03-12T07:23:37.513Z,7.63
2023-03-12T07:26:05.924Z,8.43
2023-03-12T07:28:33.089Z,6.75
2023-03-12T07:31:01.648Z,2.17
2023-03-12T07:33:28.681Z,6.50
2023-03-12T07:36:15.993Z,5.75
2023-03-12T07:38:52.190Z,5.47
2023-03-12T07:41:19.002Z,3.03
2023-03-12T07:43:46.023Z,1.90
2023-03-12T07:46:13.026Z,4.03
2023-03-12T07:48:42.858Z,6.63
2023-03-12T07:51:10.954Z,13.55
2023-03-12T07:53:37.742Z,8.10
2023-03-12T07:56:05.068Z,8.05
2023-03-12T07:58:31.963Z,10.15
2023-03-12T08:00:58.898Z,5.28
2023-03-12T08:03:26.270Z,4.45
2023-03-12T08:05:58.878Z,3.97
2023-03-12T08:08:26.405Z,6.95
2023-03-12T08:10:54.011Z,5.13
2023-03-12T08:13:21.208Z,4.78
2023-03-12T08:15:49.746Z,5.00
2023-03-12T08:18:16.596Z,2.72
2023-03-12T08:20:44.094Z,6.03
2023-03-12T08:23:11.411Z,4.68
2023-03-12T08:25:38.276Z,0.90
2023-03-12T08:28:05.482Z,1.98
2023-03-12T08:30:32.303Z,5.05
2023-03-12T08:32:59.213Z,2.95
2023-03-12T08:35:26.179Z,10.45
2023-03-12T08:37:53.034Z,34.30
2023-03-12T08:40:19.984Z,21.45
2023-03-12T08:42:46.870Z,13.07
2023-03-12T08:45:14.502Z,8.65
2023-03-12T08:47:42.556Z,5.80
2023-03-12T08:50:11.901Z,5.10
2023-03-12T08:52:39.078Z,6.88
2023-03-12T08:55:06.589Z,2.05
2023-03-12T08:57:33.560Z,7.40
2023-03-12T09:00:00.381Z,3.08
2023-03-12T09:02:28.603Z,5.65
2023-03-12T09:04:55.532Z,3.47
2023-03-12T09:07:22.807Z,3.92
2023-03-12T09:09:49.746Z,6.35
2023-03-12T09:12:16.643Z,14.98
2023-03-12T09:15:02.579Z,4.28
2023-03-12T09:17:30.650Z,6.72
2023-03-12T09:19:57.470Z,7.57
2023-03-12T09:22:24.443Z,1.92
2023-03-12T09:24:51.348Z,10.38
2023-03-12T09:27:18.298Z,10.80
2023-03-12T09:29:58.864Z,5.10
2023-03-12T09:32:27.826Z,4.88
2023-03-12T09:34:55.039Z,4.53
2023-03-12T09:37:24.146Z,3.38
2023-03-12T09:39:52.415Z,6.03
2023-03-12T09:42:41.132Z,13.15
2023-03-12T09:45:14.004Z,12.82
2023-03-12T09:47:49.371Z,6.75
2023-03-12T09:50:30.208Z,6.47
2023-03-12T09:53:28.122Z,2.80
2023-03-12T09:55:57.032Z,3.47
2023-03-12T09:58:32.638Z,5.88
2023-03-12T10:01:26.647Z,4.38
2023-03-12T10:04:18.801Z,4.38
2023-03-12T10:07:11.353Z,5.32
2023-03-12T10:10:04.118Z,7.45
2023-03-12T10:13:11.497Z,6.35
2023-03-12T10:16:09.101Z,3.65
2023-03-12T10:19:09.083Z,3.88
2023-03-12T10:22:07.716Z,9.10
2023-03-12T10:24:58.193Z,4.15
2023-03-12T10:27:28.980Z,3.17
2023-03-12T10:29:56.132Z,6.25
2023-03-12T10:32:39.721Z,5.47
2023-03-12T10:35:22.271Z,4.82
2023-03-12T10:37:53.296Z,2.13
2023-03-12T10:40:24.320Z,4.32
2023-03-12T10:42:52.797Z,3.80
2023-03-12T10:45:43.476Z,3.55
2023-03-12T10:48:11.911Z,5.63
2023-03-12T10:50:40.718Z,6.60
2023-03-12T10:53:29.989Z,3.28
2023-03-12T10:56:06.973Z,0.82
2023-03-12T10:58:40.629Z,1.45
2023-03-12T11:01:19.622Z,1.73
2023-03-12T11:03:46.818Z,3.85
2023-03-12T11:06:29.524Z,6.53
2023-03-12T11:09:17.801Z,6.10
2023-03-12T11:11:47.719Z,6.90
2023-03-12T11:14:24.069Z,3.30
2023-03-12T11:16:51.886Z,2.20
2023-03-12T11:19:31.526Z,6.15
2023-03-12T11:22:01.488Z,4.05
2023-03-12T11:24:29.026Z,4.88
2023-03-12T11:27:19.701Z,3.95
2023-03-12T11:29:49.600Z,6.85
2023-03-12T11:32:34.848Z,5.20
2023-03-12T11:35:02.303Z,2.38
2023-03-12T11:37:56.911Z,4.40
2023-03-12T11:41:03.560Z,2.55
2023-03-12T11:43:43.902Z,3.80
2023-03-12T11:46:23.242Z,3.45
2023-03-12T11:49:23.953Z,2.92
2023-03-12T11:52:02.439Z,3.35
2023-03-12T11:55:01.036Z,4.63
2023-03-12T11:57:44.923Z,1.65
2023-03-12T12:00:17.427Z,3.65
2023-03-12T12:03:10.370Z,4.20
2023-03-12T12:05:53.047Z,3.40
2023-03-12T12:08:39.336Z,3.35
2023-03-12T12:15:56.923Z,3.97
2023-03-12T12:22:49.735Z,1.80
2023-03-12T12:25:39.782Z,1.20
2023-03-12T12:28:46.652Z,1.80
2023-03-12T12:31:49.492Z,3.33
2023-03-12T12:34:39.475Z,2.55
2023-03-12T12:37:46.491Z,2.80
2023-03-12T12:40:48.192Z,3.22
2023-03-12T12:43:42.316Z,5.13
2023-03-12T12:46:18.970Z,6.15
2023-03-12T12:48:53.977Z,1.73
2023-03-12T12:51:27.182Z,2.30
2023-03-12T12:54:34.108Z,5.32
2023-03-12T12:57:05.855Z,5.25
2023-03-12T13:00:12.462Z,5.38
2023-03-12T13:02:42.269Z,3.10
2023-03-12T13:05:27.091Z,4.78
2023-03-12T13:07:54.164Z,1.92
2023-03-12T13:10:48.719Z,3.78
2023-03-12T13:13:27.194Z,1.77
2023-03-12T13:16:19.286Z,5.00
2023-03-12T13:19:26.307Z,3.45
2023-03-12T13:22:32.981Z,2.10
2023-03-12T13:25:39.682Z,3.47
2023-03-12T13:28:44.493Z,2.53
2023-03-12T13:31:35.298Z,3.50
2023-03-12T13:34:30.829Z,4.03
2023-03-12T13:37:00.624Z,7.50
2023-03-12T13:39:34.378Z,7.32
2023-03-12T13:42:02.846Z,4.90
2023-03-12T13:44:40.186Z,4.32
2023-03-12T13:47:28.455Z,2.53
2023-03-12T13:50:01.981Z,8.30
2023-03-12T13:52:34.340Z,2.92
2023-03-12T13:55:06.020Z,3.80
2023-03-12T13:57:40.299Z,1.73
2023-03-12T14:00:16.694Z,6.57
2023-03-12T14:02:49.152Z,5.80
2023-03-12T14:05:17.058Z,3.53
2023-03-12T14:08:10.811Z,2.83
2023-03-12T14:11:06.514Z,4.38
2023-03-12T14:13:59.215Z,4.30
2023-03-12T14:16:34.081Z,4.35
2023-03-12T14:19:02.603Z,6.93
2023-03-12T14:21:33.887Z,5.43
2023-03-12T14:24:01.804Z,9.57
2023-03-12T14:26:32.531Z,12.20
2023-03-12T14:29:15.506Z,12.88
2023-03-12T14:31:42.591Z,9.23
2023-03-12T14:34:22.109Z,12.15
2023-03-12T14:37:16.748Z,12.95
2023-03-12T14:39:55.809Z,14.95
2023-03-12T14:42:26.279Z,7.63
2023-03-12T14:44:57.673Z,9.15
2023-03-12T14:47:24.979Z,6.35
2023-03-12T14:49:51.860Z,5.57
2023-03-12T14:52:30.731Z,9.32
2023-03-12T14:55:05.448Z,5.45
2023-03-12T14:57:32.251Z,9.57
2023-03-12T15:00:01.202Z,12.95
2023-03-12T15:02:31.410Z,11.35
2023-03-12T15:05:00.644Z,8.70
2023-03-12T15:07:35.459Z,14.32
2023-03-12T15:10:05.327Z,14.52
2023-03-12T15:12:35.341Z,15.07
2023-03-12T15:15:07.655Z,8.18
2023-03-12T15:17:34.981Z,6.13
2023-03-12T15:20:05.659Z,4.82
2023-03-12T15:22:32.732Z,8.82
2023-03-12T15:25:05.265Z,6.85
2023-03-12T15:27:33.712Z,8.80
2023-03-12T15:30:01.387Z,6.63
2023-03-12T15:32:30.701Z,8.88
2023-03-12T15:34:59.215Z,24.08
2023-03-12T15:37:41.274Z,48.35
2023-03-12T15:40:20.801Z,44.83
2023-03-12T15:42:48.272Z,42.40
2023-03-12T15:45:24.532Z,37.15
2023-03-12T15:47:53.854Z,36.85
2023-03-12T15:50:32.679Z,26.00
2023-03-12T15:53:22.766Z,17.15
2023-03-12T15:56:25.122Z,17.45
2023-03-12T16:01:47.295Z,11.32
2023-03-12T16:04:14.445Z,7.28
2023-03-12T16:06:44.037Z,10.55
2023-03-12T16:09:16.734Z,9.43
2023-03-12T16:11:44.211Z,11.68
2023-03-12T16:14:18.444Z,10.52
2023-03-12T16:16:46.093Z,9.45
2023-03-12T16:19:14.722Z,15.55
2023-03-12T16:21:42.280Z,17.00
2023-03-12T16:24:09.879Z,14.95
2023-03-12T16:26:42.301Z,18.80
2023-03-12T16:29:11.839Z,30.70
2023-03-12T16:31:38.649Z,32.75
2023-03-12T16:34:05.589Z,24.23
2023-03-12T16:36:32.407Z,25.08
2023-03-12T16:39:00.108Z,27.80
2023-03-12T16:41:28.877Z,30.23
2023-03-12T16:43:57.544Z,37.78
2023-03-12T16:46:27.458Z,36.35
2023-03-12T16:48:54.379Z,31.05
2023-03-12T16:51:21.998Z,39.03
2023-03-12T16:53:58.680Z,39.60
2023-03-12T16:56:32.492Z,33.03
2023-03-12T16:59:00.732Z,31.80
2023-03-12T17:01:29.282Z,34.35
2023-03-12T17:03:56.578Z,36.55
2023-03-12T17:06:26.025Z,32.40
2023-03-12T17:08:56.468Z,30.00
2023-03-12T17:11:36.419Z,30.88
2023-03-12T17:14:18.629Z,27.80
2023-03-12T17:16:46.023Z,53.03
2023-03-12T17:19:13.609Z,44.85
2023-03-12T17:21:41.138Z,45.42
2023-03-12T17:24:08.498Z,44.08
2023-03-12T17:26:37.045Z,47.60
2023-03-12T17:29:04.756Z,51.97
2023-03-12T17:31:33.267Z,47.85
2023-03-12T17:34:03.359Z,63.08
2023-03-12T17:36:30.910Z,4.88
2023-03-12T17:38:59.060Z,83.35
2023-03-12T17:41:27.412Z,71.68
2023-03-12T17:43:55.375Z,87.45
2023-03-12T17:46:22.321Z,85.78
2023-03-12T17:48:49.580Z,90.78
2023-03-12T17:51:16.919Z,91.88
2023-03-12T17:53:43.841Z,107.20
2023-03-12T17:56:12.782Z,87.38
2023-03-12T17:58:39.728Z,81.40
2023-03-12T18:01:07.142Z,84.85
2023-03-12T18:03:34.123Z,79.88
2023-03-12T18:06:01.175Z,67.65
2023-03-12T18:08:28.032Z,67.28
2023-03-12T18:10:55.147Z,72.65
2023-03-12T18:13:21.966Z,68.47
2023-03-12T18:15:53.839Z,71.95
2023-03-12T18:18:21.473Z,57.30
2023-03-12T18:20:49.243Z,56.92
2023-03-12T18:23:16.443Z,53.40
2023-03-12T18:25:43.723Z,47.15
2023-03-12T18:28:11.259Z,47.50
2023-03-12T18:30:38.641Z,47.50
2023-03-12T18:33:07.102Z,47.85
2023-03-12T18:35:35.658Z,45.95
2023-03-12T18:38:03.442Z,58.65
2023-03-12T18:40:34.349Z,53.45
2023-03-12T18:43:03.801Z,48.72
2023-03-12T18:45:32.046Z,60.05
2023-03-12T18:47:59.090Z,58.15
2023-03-12T18:50:27.493Z,57.17
2023-03-12T18:52:55.100Z,66.90
2023-03-12T18:55:23.283Z,72.97
2023-03-12T18:57:52.088Z,89.20
2023-03-12T19:00:21.876Z,79.68
2023-03-12T19:02:51.675Z,72.07
2023-03-12T19:05:19.716Z,77.70
2023-03-12T19:07:49.878Z,72.72
2023-03-12T19:10:19.196Z,74.80
2023-03-12T19:12:52.803Z,72.18
2023-03-12T19:15:24.513Z,75.63
2023-03-12T19:17:54.880Z,83.10
2023-03-12T19:20:21.933Z,82.22
2023-03-12T19:22:49.927Z,83.80
2023-03-12T19:25:16.844Z,82.50
2023-03-12T19:27:43.687Z,77.10
2023-03-12T19:30:11.345Z,74.25
2023-03-12T19:32:43.868Z,85.88
2023-03-12T19:35:14.423Z,76.00
2023-03-12T19:37:42.702Z,75.70
2023-03-12T19:40:11.366Z,71.60
2023-03-12T19:42:38.359Z,71.07
2023-03-12T19:45:05.795Z,73.70
2023-03-12T19:47:33.460Z,77.35
2023-03-12T19:50:00.856Z,69.10
2023-03-12T19:52:28.048Z,68.47
2023-03-12T19:55:04.183Z,69.75
2023-03-12T19:57:33.227Z,66.80
2023-03-12T20:00:00.359Z,68.45
2023-03-12T20:02:29.115Z,74.15
2023-03-12T20:04:57.173Z,70.85
2023-03-12T20:07:24.605Z,77.40
2023-03-12T20:09:52.579Z,73.72
2023-03-12T20:12:19.894Z,73.07
2023-03-12T20:14:48.086Z,75.72
2023-03-12T20:17:15.499Z,77.57
2023-03-12T20:19:42.890Z,79.47
2023-03-12T20:22:10.000Z,78.50
2023-03-12T20:24:37.021Z,80.50
2023-03-12T20:27:04.666Z,97.90
2023-03-12T20:29:31.580Z,88.63
2023-03-12T20:31:58.611Z,104.32
2023-03-12T20:34:25.752Z,105.22
2023-03-12T20:36:52.660Z,97.32
2023-03-12T20:39:19.653Z,97.05
2023-03-12T20:41:46.483Z,95.00
2023-03-12T20:44:13.484Z,95.95
2023-03-12T20:46:40.281Z,94.57
2023-03-12T20:49:07.517Z,100.15
2023-03-12T20:51:35.850Z,96.22
2023-03-12T20:54:02.925Z,92.53
2023-03-12T20:56:29.781Z,88.28
2023-03-12T20:58:57.293Z,94.68
2023-03-12T21:01:24.140Z,119.00
2023-03-12T21:03:51.194Z,97.88
2023-03-12T21:06:18.112Z,97.93
2023-03-12T21:08:45.324Z,93.57
2023-03-12T21:11:12.626Z,91.13
2023-03-12T21:13:39.548Z,108.38
2023-03-12T21:16:08.018Z,109.35
2023-03-12T21:18:35.155Z,85.45
2023-03-12T21:21:06.923Z,84.95
2023-03-12T21:23:35.277Z,87.25
2023-03-12T21:26:08.536Z,74.15
2023-03-12T21:28:36.346Z,73.97
2023-03-12T21:31:11.627Z,70.93
2023-03-12T21:33:38.965Z,75.53
2023-03-12T21:36:07.872Z,72.82
2023-03-12T21:38:35.993Z,72.80
2023-03-12T21:41:11.276Z,71.32
2023-03-12T21:43:38.897Z,68.20
2023-03-12T21:46:07.691Z,70.35
2023-03-12T21:48:35.113Z,70.97
2023-03-12T21:51:07.248Z,75.28
2023-03-12T21:53:35.113Z,76.32
2023-03-12T21:56:02.779Z,77.45
2023-03-12T21:58:30.682Z,80.20
2023-03-12T22:01:17.877Z,84.45
2023-03-12T22:03:45.932Z,82.78
2023-03-12T22:06:13.812Z,80.95
2023-03-12T22:08:41.073Z,84.40
2023-03-12T22:11:08.833Z,72.35
2023-03-12T22:13:36.025Z,73.10
2023-03-12T22:16:06.879Z,84.60
2023-03-12T22:18:36.164Z,90.97
2023-03-12T22:21:05.381Z,93.35
2023-03-12T22:23:32.364Z,89.43
2023-03-12T22:26:03.865Z,92.20
2023-03-12T22:28:31.529Z,80.63
2023-03-12T22:30:59.696Z,106.95
2023-03-12T22:33:27.528Z,104.88
2023-03-12T22:35:54.518Z,86.82
2023-03-12T22:38:22.412Z,94.97
2023-03-12T22:40:49.428Z,110.88
2023-03-12T22:43:16.510Z,107.85
2023-03-12T22:45:43.502Z,115.75
2023-03-12T22:48:10.498Z,117.65
2023-03-12T22:50:37.452Z,108.97
2023-03-12T22:53:04.333Z,90.25
2023-03-12T22:55:31.265Z,90.22
2023-03-12T22:57:58.090Z,92.78
2023-03-12T23:00:26.677Z,90.25
2023-03-12T23:02:54.070Z,87.15
2023-03-12T23:05:21.025Z,79.82
2023-03-12T23:07:48.016Z,67.97
2023-03-12T23:10:15.780Z,64.40
2023-03-12T23:12:42.725Z,56.38
2023-03-12T23:15:11.221Z,62.17
2023-03-12T23:17:38.092Z,61.38
2023-03-12T23:20:06.084Z,60.88
2023-03-12T23:22:33.481Z,47.33
2023-03-12T23:25:00.385Z,40.70
2023-03-12T23:27:27.324Z,41.95
2023-03-12T23:29:54.203Z,46.40
2023-03-12T23:32:21.042Z,37.28
2023-03-12T23:34:47.871Z,36.75
2023-03-12T23:37:15.047Z,32.17
2023-03-12T23:39:53.947Z,30.83
2023-03-12T23:42:21.952Z,50.63
2023-03-12T23:44:48.697Z,53.38
2023-03-12T23:47:15.639Z,53.17
2023-03-12T23:49:42.447Z,66.05
2023-03-12T23:52:09.356Z,73.40
2023-03-12T23:54:36.159Z,76.18
2023-03-12T23:57:03.182Z,51.60
2023-03-12T23:59:29.985Z,42.42
